Startpagina
METAR-TAF:

METAR-TAF

Vliegvelden :

Vliegbasis Gilze-Rijen

Gilze-Rijen, Nederland

breedte: 51-34N, lengte: 004-56E, hoogte: 15 m

Actueel weer

Dit bericht is 30 minuten geleden gemaakt, om 17:25 UTC
Wind 8 kt uit het zuiden
Temperatuur 9°C
Vochtigheid 66%
Druk 1018 hPa
Zicht 10 km of meer
Verspreide wolken op 35000 ft

METAR: EHGR 171725Z AUTO 18008KT 9999 SCT350 09/03 Q1018 BLU

Tijdstip: 18:55 (17:55 UTC)


TAF: ontbreekt

Waarnemingen en weersverwachtingen van meer dan 4000 vliegvelden (METAR en TAF).

De beschikbare stations zijn de gele en rode punten op de kaart.

Ga met uw muis naar het station om de naam te zien.

Klik dan om waarnemingen en weersverwachtingen te zien.

kaart wijzigen: klik op de groene knoppen met een zwart kruis om in te zoomen, op de groene knop met een streepje om uit te zoomen of op de groene pijlen voor aangrenzende kaarten.


METAR-TAF: